createdAt,value
2019-04-27T00:00:28.500Z,7.33
2019-04-27T00:01:24.663Z,7.24
2019-04-27T00:02:26.617Z,7.23
2019-04-27T00:03:26.082Z,7.24
2019-04-27T00:04:25.399Z,7.16
2019-04-27T00:05:32.056Z,7.19
2019-04-27T00:06:27.608Z,7.24
2019-04-27T00:07:25.845Z,7.34
2019-04-27T00:08:28.525Z,7.44
2019-04-27T00:09:28.536Z,7.42
2019-04-27T00:10:28.606Z,7.42
2019-04-27T00:11:27.492Z,7.37
2019-04-27T00:12:26.659Z,7.45
2019-04-27T00:13:26.852Z,7.76
2019-04-27T00:14:27.030Z,7.92
2019-04-27T00:15:31.194Z,7.96
2019-04-27T00:16:29.337Z,8.02
2019-04-27T00:17:43.487Z,8.27
2019-04-27T00:18:28.628Z,8.50
2019-04-27T00:19:31.837Z,8.58
2019-04-27T00:20:28.966Z,8.65
2019-04-27T00:21:28.114Z,8.76
2019-04-27T00:22:28.292Z,8.76
2019-04-27T00:23:28.453Z,8.83
2019-04-27T00:24:28.607Z,8.67
2019-04-27T00:25:28.796Z,8.78
2019-04-27T00:26:28.945Z,8.71
2019-04-27T00:27:29.110Z,8.65
2019-04-27T00:28:29.271Z,8.63
2019-04-27T00:29:29.446Z,8.60
2019-04-27T00:30:29.610Z,8.57
2019-04-27T00:31:30.778Z,8.61
2019-04-27T00:32:29.947Z,8.54
2019-04-27T00:33:30.099Z,8.58
2019-04-27T00:34:30.249Z,8.61
2019-04-27T00:35:30.418Z,8.57
2019-04-27T00:36:30.569Z,8.65
2019-04-27T00:37:30.716Z,8.60
2019-04-27T00:38:33.292Z,8.78
2019-04-27T00:39:31.011Z,8.63
2019-04-27T00:40:31.180Z,8.76
2019-04-27T00:41:31.323Z,8.78
2019-04-27T00:42:31.463Z,8.91
2019-04-27T00:43:32.831Z,8.80
2019-04-27T00:44:31.862Z,8.91
2019-04-27T00:45:33.515Z,8.78
2019-04-27T00:46:33.081Z,8.76
2019-04-27T00:47:35.019Z,8.65
2019-04-27T00:48:33.340Z,8.70
2019-04-27T00:49:33.675Z,8.54
2019-04-27T00:50:33.812Z,8.60
2019-04-27T00:51:33.336Z,8.63
2019-04-27T00:52:34.856Z,8.60
2019-04-27T00:53:35.022Z,8.55
2019-04-27T00:54:33.986Z,8.54
2019-04-27T00:55:34.703Z,8.54
2019-04-27T00:56:34.009Z,8.47
2019-04-27T00:57:36.026Z,8.43
2019-04-27T00:58:34.248Z,8.27
2019-04-27T00:59:34.422Z,8.27
2019-04-27T01:00:35.532Z,8.06
2019-04-27T01:01:34.814Z,7.95
2019-04-27T01:02:35.432Z,7.95
2019-04-27T01:03:36.213Z,7.89
2019-04-27T01:04:35.356Z,7.86
2019-04-27T01:05:35.519Z,7.82
2019-04-27T01:06:35.658Z,7.69
2019-04-27T01:07:35.839Z,7.67
2019-04-27T01:08:36.044Z,7.60
2019-04-27T01:09:36.189Z,7.51
2019-04-27T01:10:36.359Z,7.36
2019-04-27T01:11:36.526Z,7.29
2019-04-27T01:12:36.702Z,7.26
2019-04-27T01:13:37.523Z,7.29
2019-04-27T01:14:37.004Z,7.21
2019-04-27T01:15:37.165Z,7.18
2019-04-27T01:16:37.301Z,7.39
2019-04-27T01:17:39.017Z,7.96
2019-04-27T01:18:38.748Z,7.92
2019-04-27T01:19:39.244Z,8.14
2019-04-27T01:20:38.778Z,8.29
2019-04-27T01:21:39.655Z,8.39
2019-04-27T01:22:39.480Z,8.37
2019-04-27T01:23:38.593Z,8.60
2019-04-27T01:24:39.132Z,8.65
2019-04-27T01:25:40.528Z,8.71
2019-04-27T01:26:39.180Z,8.68
2019-04-27T01:27:39.437Z,8.68
2019-04-27T01:28:40.488Z,8.52
2019-04-27T01:29:41.437Z,8.52
2019-04-27T01:30:39.756Z,8.52
2019-04-27T01:31:39.903Z,8.47
2019-04-27T01:32:41.031Z,8.50
2019-04-27T01:33:40.186Z,8.47
2019-04-27T01:34:40.346Z,8.45
2019-04-27T01:35:40.491Z,8.31
2019-04-27T01:36:40.642Z,8.24
2019-04-27T01:37:40.815Z,8.20
2019-04-27T01:38:41.168Z,8.04
2019-04-27T01:39:42.222Z,7.84
2019-04-27T01:40:42.027Z,7.74
2019-04-27T01:41:41.529Z,7.71
2019-04-27T01:42:42.538Z,7.55
2019-04-27T01:43:41.919Z,7.42
2019-04-27T01:44:42.108Z,7.24
2019-04-27T01:45:43.033Z,7.15
2019-04-27T01:46:42.396Z,7.08
2019-04-27T01:47:42.550Z,7.04
2019-04-27T01:48:42.679Z,6.87
2019-04-27T01:49:42.945Z,6.89
2019-04-27T01:50:43.099Z,6.87
2019-04-27T01:51:43.242Z,6.87
2019-04-27T01:52:43.416Z,6.91
2019-04-27T01:53:44.534Z,6.94
2019-04-27T01:54:43.703Z,6.97
2019-04-27T01:55:43.866Z,7.00
2019-04-27T01:56:44.022Z,7.00
2019-04-27T01:57:45.034Z,6.99
2019-04-27T01:58:44.277Z,6.91
2019-04-27T01:59:44.464Z,6.89
2019-04-27T02:00:44.618Z,6.76
2019-04-27T02:01:44.735Z,6.79
2019-04-27T02:02:45.537Z,6.90
2019-04-27T02:03:45.034Z,6.86
2019-04-27T02:04:45.178Z,6.90
2019-04-27T02:05:45.343Z,7.01
2019-04-27T02:06:45.508Z,6.96
2019-04-27T02:07:46.544Z,7.07
2019-04-27T02:08:45.782Z,7.15
2019-04-27T02:09:45.940Z,6.99
2019-04-27T02:10:46.123Z,6.87
2019-04-27T02:11:46.299Z,6.79
2019-04-27T02:12:46.488Z,6.75
2019-04-27T02:13:46.648Z,6.68
2019-04-27T02:14:46.813Z,6.73
2019-04-27T02:15:48.630Z,6.86
2019-04-27T02:16:47.125Z,6.68
2019-04-27T02:17:50.677Z,6.64
2019-04-27T02:18:48.864Z,6.60
2019-04-27T02:19:49.375Z,6.45
2019-04-27T02:20:49.292Z,6.36
2019-04-27T02:21:51.304Z,6.45
2019-04-27T02:22:50.775Z,6.40
2019-04-27T02:23:49.707Z,6.35
2019-04-27T02:24:49.265Z,6.35
2019-04-27T02:25:49.921Z,6.30
2019-04-27T02:26:49.730Z,6.32
2019-04-27T02:27:50.194Z,6.24
2019-04-27T02:28:49.599Z,6.19
2019-04-27T02:29:50.449Z,6.14
2019-04-27T02:30:49.912Z,6.14
2019-04-27T02:31:50.980Z,6.10
2019-04-27T02:32:50.111Z,6.20
2019-04-27T02:33:50.252Z,6.30
2019-04-27T02:34:50.601Z,6.24
2019-04-27T02:35:51.575Z,5.99
2019-04-27T02:36:51.046Z,6.01
2019-04-27T02:37:50.922Z,5.98
2019-04-27T02:38:51.057Z,5.85
2019-04-27T02:39:51.199Z,5.80
2019-04-27T02:40:51.371Z,5.98
2019-04-27T02:41:52.598Z,5.96
2019-04-27T02:42:54.621Z,5.93
2019-04-27T02:43:52.942Z,5.90
2019-04-27T02:44:52.172Z,5.95
2019-04-27T02:45:52.311Z,5.93
2019-04-27T02:46:52.485Z,5.78
2019-04-27T02:47:53.534Z,5.78
2019-04-27T02:48:59.843Z,5.69
2019-04-27T02:49:54.894Z,5.77
2019-04-27T02:50:53.114Z,5.83
2019-04-27T02:51:53.265Z,5.96
2019-04-27T02:52:53.421Z,6.11
2019-04-27T02:53:53.569Z,6.11
2019-04-27T02:54:54.054Z,6.05
2019-04-27T02:55:53.933Z,6.14
2019-04-27T02:56:54.076Z,6.28
2019-04-27T02:57:54.210Z,6.32
2019-04-27T02:58:54.479Z,6.24
2019-04-27T02:59:54.600Z,6.13
2019-04-27T03:00:54.845Z,5.96
2019-04-27T03:01:54.970Z,6.06
2019-04-27T03:02:55.159Z,6.05
2019-04-27T03:03:55.322Z,5.98
2019-04-27T03:04:56.051Z,5.98
2019-04-27T03:05:56.551Z,5.96
2019-04-27T03:06:55.778Z,6.01
2019-04-27T03:07:55.920Z,5.93
2019-04-27T03:08:56.100Z,5.93
2019-04-27T03:09:56.232Z,5.92
2019-04-27T03:10:56.363Z,5.93
2019-04-27T03:11:56.514Z,5.88
2019-04-27T03:12:56.691Z,5.78
2019-04-27T03:13:59.665Z,5.67
2019-04-27T03:14:57.021Z,5.81
2019-04-27T03:16:00.244Z,5.77
2019-04-27T03:17:00.006Z,5.83
2019-04-27T03:17:59.700Z,5.84
2019-04-27T03:19:13.375Z,6.13
2019-04-27T03:19:59.990Z,6.21
2019-04-27T03:21:00.334Z,5.99
2019-04-27T03:21:59.541Z,5.85
2019-04-27T03:23:00.079Z,5.92
2019-04-27T03:24:00.260Z,5.81
2019-04-27T03:25:00.250Z,5.85
2019-04-27T03:26:00.420Z,5.77
2019-04-27T03:27:00.695Z,5.65
2019-04-27T03:28:02.587Z,5.69
2019-04-27T03:29:00.000Z,5.77
2019-04-27T03:30:00.729Z,5.74
2019-04-27T03:31:02.495Z,5.84
2019-04-27T03:32:02.130Z,5.93
2019-04-27T03:33:02.888Z,5.83
2019-04-27T03:34:05.336Z,5.90
2019-04-27T03:35:03.081Z,5.81
2019-04-27T03:36:02.857Z,5.92
2019-04-27T03:37:02.050Z,5.87
2019-04-27T03:38:01.031Z,5.90
2019-04-27T03:39:01.563Z,5.85
2019-04-27T03:40:01.326Z,5.84
2019-04-27T03:41:01.576Z,5.88
2019-04-27T03:42:01.704Z,5.87
2019-04-27T03:43:01.835Z,5.92
2019-04-27T03:44:01.975Z,5.85
2019-04-27T03:45:02.129Z,5.85
2019-04-27T03:46:02.561Z,5.88
2019-04-27T03:47:02.440Z,5.95
2019-04-27T03:48:02.596Z,5.84
2019-04-27T03:49:03.546Z,5.83
2019-04-27T03:50:02.953Z,5.93
2019-04-27T03:51:03.155Z,5.90
2019-04-27T03:52:03.325Z,5.84
2019-04-27T03:53:03.473Z,5.83
2019-04-27T03:54:04.087Z,5.75
2019-04-27T03:55:03.866Z,5.65
2019-04-27T03:56:04.060Z,5.80
2019-04-27T03:57:04.270Z,5.78
2019-04-27T03:58:04.462Z,5.84
2019-04-27T03:59:04.657Z,5.96
2019-04-27T04:00:04.842Z,6.11
2019-04-27T04:01:05.050Z,6.06
2019-04-27T04:02:06.055Z,6.13
2019-04-27T04:03:06.044Z,6.13
2019-04-27T04:04:06.065Z,6.06
2019-04-27T04:05:05.678Z,6.10
2019-04-27T04:06:05.883Z,6.13
2019-04-27T04:07:06.032Z,6.21
2019-04-27T04:08:06.152Z,6.50
2019-04-27T04:09:06.284Z,6.68
2019-04-27T04:10:06.409Z,6.82
2019-04-27T04:11:06.565Z,6.83
2019-04-27T04:12:09.448Z,6.83
2019-04-27T04:13:06.905Z,6.72
2019-04-27T04:14:07.039Z,6.75
2019-04-27T04:15:09.806Z,6.72
2019-04-27T04:16:08.001Z,6.71
2019-04-27T04:17:09.842Z,6.72
2019-04-27T04:18:09.830Z,6.99
2019-04-27T04:19:10.017Z,7.14
2019-04-27T04:20:10.145Z,7.36
2019-04-27T04:21:09.628Z,7.47
2019-04-27T04:22:10.241Z,7.47
2019-04-27T04:23:10.595Z,7.54
2019-04-27T04:24:11.883Z,7.47
2019-04-27T04:25:10.779Z,7.52
2019-04-27T04:26:10.205Z,7.69
2019-04-27T04:27:10.084Z,7.74
2019-04-27T04:28:09.600Z,7.82
2019-04-27T04:29:10.567Z,7.94
2019-04-27T04:30:12.286Z,7.91
2019-04-27T04:31:13.844Z,8.47
2019-04-27T04:32:12.050Z,8.60
2019-04-27T04:33:11.482Z,8.86
2019-04-27T04:34:12.090Z,8.82
2019-04-27T04:35:11.745Z,8.79
2019-04-27T04:36:10.871Z,8.80
2019-04-27T04:37:11.035Z,8.94
2019-04-27T04:38:11.231Z,8.94
2019-04-27T04:39:12.473Z,9.08
2019-04-27T04:40:12.535Z,9.10
2019-04-27T04:41:11.783Z,9.15
2019-04-27T04:42:11.944Z,9.20
2019-04-27T04:43:12.103Z,9.30
2019-04-27T04:44:12.641Z,9.44
2019-04-27T04:45:13.481Z,9.59
2019-04-27T04:46:13.336Z,9.68
2019-04-27T04:47:13.848Z,9.93
2019-04-27T04:48:12.988Z,9.86
2019-04-27T04:49:13.142Z,9.85
2019-04-27T04:50:15.252Z,10.01
2019-04-27T04:51:14.509Z,10.31
2019-04-27T04:52:13.635Z,10.34
2019-04-27T04:53:13.848Z,10.47
2019-04-27T04:54:14.029Z,10.57
2019-04-27T04:55:15.217Z,10.65
2019-04-27T04:56:14.342Z,10.99
2019-04-27T04:57:14.484Z,10.94
2019-04-27T04:58:15.067Z,11.13
2019-04-27T04:59:14.801Z,11.11
2019-04-27T05:00:15.058Z,11.16
2019-04-27T05:01:15.313Z,11.39
2019-04-27T05:02:16.061Z,11.42
2019-04-27T05:03:15.551Z,11.19
2019-04-27T05:04:15.815Z,11.41
2019-04-27T05:05:15.961Z,11.70
2019-04-27T05:06:16.099Z,11.51
2019-04-27T05:07:16.230Z,11.82
2019-04-27T05:08:16.361Z,11.88
2019-04-27T05:09:16.560Z,11.78
2019-04-27T05:10:16.661Z,11.63
2019-04-27T05:11:16.780Z,11.66
2019-04-27T05:12:16.915Z,11.54
2019-04-27T05:13:19.317Z,11.30
2019-04-27T05:14:19.979Z,11.31
2019-04-27T05:15:19.233Z,11.53
2019-04-27T05:16:18.895Z,11.72
2019-04-27T05:17:19.454Z,11.88
2019-04-27T05:18:19.146Z,12.07
2019-04-27T05:19:18.855Z,11.97
2019-04-27T05:20:24.384Z,11.72
2019-04-27T05:21:20.552Z,11.63
2019-04-27T05:22:19.562Z,11.69
2019-04-27T05:23:19.875Z,11.77
2019-04-27T05:24:19.377Z,11.98
2019-04-27T05:25:20.302Z,12.15
2019-04-27T05:26:20.769Z,12.13
2019-04-27T05:27:19.633Z,12.33
2019-04-27T05:28:19.767Z,12.38
2019-04-27T05:29:19.922Z,12.44
2019-04-27T05:30:20.083Z,12.63
2019-04-27T05:31:20.229Z,13.09
2019-04-27T05:32:20.711Z,13.47
2019-04-27T05:33:21.546Z,13.39
2019-04-27T05:34:21.068Z,12.70
2019-04-27T05:35:20.968Z,12.03
2019-04-27T05:36:21.105Z,12.05
2019-04-27T05:37:27.831Z,12.25
2019-04-27T05:38:23.472Z,12.41
2019-04-27T05:39:25.031Z,12.01
2019-04-27T05:40:23.068Z,11.84
2019-04-27T05:41:22.061Z,11.96
2019-04-27T05:42:22.200Z,12.05
2019-04-27T05:43:25.536Z,12.05
2019-04-27T05:44:23.551Z,12.33
2019-04-27T05:45:23.022Z,12.81
2019-04-27T05:46:23.946Z,12.87
2019-04-27T05:47:24.015Z,12.61
2019-04-27T05:48:27.757Z,12.40
2019-04-27T05:49:25.376Z,12.46
2019-04-27T05:50:35.587Z,12.25
2019-04-27T05:51:25.829Z,12.29
2019-04-27T05:52:24.036Z,12.43
2019-04-27T05:53:24.180Z,12.51
2019-04-27T05:54:24.300Z,12.29
2019-04-27T05:55:24.419Z,12.16
2019-04-27T05:56:24.694Z,12.26
2019-04-27T05:57:24.815Z,12.59
2019-04-27T05:58:25.049Z,12.54
2019-04-27T05:59:25.278Z,12.94
2019-04-27T06:00:25.425Z,12.76
2019-04-27T06:01:26.071Z,12.38
2019-04-27T06:02:25.687Z,12.18
2019-04-27T06:03:25.817Z,12.16
2019-04-27T06:04:25.962Z,12.26
2019-04-27T06:05:29.117Z,12.23
2019-04-27T06:06:26.260Z,12.25
2019-04-27T06:07:26.439Z,12.33
2019-04-27T06:08:26.592Z,12.13
2019-04-27T06:09:26.764Z,12.03
2019-04-27T06:10:26.933Z,11.82
2019-04-27T06:11:28.645Z,11.87
2019-04-27T06:12:27.247Z,11.87
2019-04-27T06:13:30.765Z,11.87
2019-04-27T06:14:29.556Z,11.72
2019-04-27T06:15:28.385Z,11.67
2019-04-27T06:16:29.538Z,11.79
2019-04-27T06:17:29.903Z,11.72
2019-04-27T06:18:29.389Z,11.72
2019-04-27T06:19:29.161Z,11.70
2019-04-27T06:20:29.651Z,11.60
2019-04-27T06:21:29.509Z,11.62
2019-04-27T06:22:29.988Z,11.66
2019-04-27T06:23:29.159Z,11.64
2019-04-27T06:24:29.749Z,11.46
2019-04-27T06:25:30.714Z,11.53
2019-04-27T06:26:30.707Z,11.48
2019-04-27T06:27:30.792Z,11.44
2019-04-27T06:28:31.495Z,11.39
2019-04-27T06:29:31.160Z,11.45
2019-04-27T06:30:31.074Z,11.48
2019-04-27T06:31:30.538Z,11.30
2019-04-27T06:32:30.657Z,11.41
2019-04-27T06:33:34.315Z,11.36
2019-04-27T06:34:32.036Z,11.26
2019-04-27T06:35:31.277Z,11.44
2019-04-27T06:36:31.400Z,11.35
2019-04-27T06:37:31.543Z,11.26
2019-04-27T06:38:31.695Z,11.33
2019-04-27T06:39:31.839Z,11.38
2019-04-27T06:40:31.961Z,11.44
2019-04-27T06:41:32.589Z,11.33
2019-04-27T06:42:32.325Z,11.31
2019-04-27T06:43:32.455Z,11.31
2019-04-27T06:44:32.585Z,11.35
2019-04-27T06:45:32.826Z,11.38
2019-04-27T06:46:32.968Z,11.31
2019-04-27T06:47:33.079Z,11.21
2019-04-27T06:48:33.309Z,11.19
2019-04-27T06:49:33.434Z,11.23
2019-04-27T06:50:33.581Z,11.23
2019-04-27T06:51:34.573Z,11.30
2019-04-27T06:52:33.937Z,11.27
2019-04-27T06:53:34.062Z,11.24
2019-04-27T06:54:34.194Z,11.24
2019-04-27T06:55:34.337Z,11.38
2019-04-27T06:56:34.467Z,11.30
2019-04-27T06:57:34.692Z,11.26
2019-04-27T06:58:34.938Z,11.42
2019-04-27T06:59:35.098Z,11.41
2019-04-27T07:00:35.258Z,11.42
2019-04-27T07:01:35.398Z,11.36
2019-04-27T07:02:35.521Z,11.39
2019-04-27T07:03:35.659Z,11.39
2019-04-27T07:04:35.788Z,11.35
2019-04-27T07:05:35.967Z,11.35
2019-04-27T07:06:36.106Z,11.21
2019-04-27T07:07:36.250Z,11.21
2019-04-27T07:08:36.380Z,11.36
2019-04-27T07:09:36.526Z,11.42
2019-04-27T07:10:36.702Z,11.42
2019-04-27T07:11:36.862Z,11.45
2019-04-27T07:12:40.712Z,11.36
2019-04-27T07:13:38.917Z,11.38
2019-04-27T07:14:50.363Z,11.27
2019-04-27T07:15:38.742Z,11.31
2019-04-27T07:16:39.178Z,11.39
2019-04-27T07:17:38.856Z,11.33
2019-04-27T07:18:39.720Z,11.36
2019-04-27T07:19:39.742Z,11.30
2019-04-27T07:20:39.552Z,11.33
2019-04-27T07:21:39.964Z,11.36
2019-04-27T07:22:39.920Z,11.38
2019-04-27T07:23:39.135Z,11.28
2019-04-27T07:24:40.608Z,11.20
2019-04-27T07:25:39.438Z,10.88
2019-04-27T07:26:39.557Z,10.72
2019-04-27T07:27:40.097Z,10.76
2019-04-27T07:28:41.027Z,10.68
2019-04-27T07:29:44.707Z,10.52
2019-04-27T07:30:40.210Z,10.46
2019-04-27T07:31:40.589Z,10.43
2019-04-27T07:32:40.600Z,10.42
2019-04-27T07:33:41.758Z,10.29
2019-04-27T07:34:40.988Z,10.34
2019-04-27T07:35:42.087Z,10.31
2019-04-27T07:36:41.464Z,10.26
2019-04-27T07:37:41.658Z,10.26
2019-04-27T07:38:42.583Z,10.24
2019-04-27T07:39:41.977Z,10.26
2019-04-27T07:40:43.076Z,10.20
2019-04-27T07:41:42.328Z,10.16
2019-04-27T07:42:42.560Z,10.13
2019-04-27T07:43:42.717Z,10.18
2019-04-27T07:44:42.878Z,10.17
2019-04-27T07:45:43.046Z,10.22
2019-04-27T07:46:43.206Z,10.11
2019-04-27T07:47:43.402Z,10.14
2019-04-27T07:48:43.572Z,10.14
2019-04-27T07:49:43.787Z,10.04
2019-04-27T07:50:43.955Z,10.17
2019-04-27T07:51:44.153Z,10.09
2019-04-27T07:52:44.298Z,10.17
2019-04-27T07:53:44.476Z,10.20
2019-04-27T07:54:44.642Z,10.18
2019-04-27T07:55:44.791Z,10.16
2019-04-27T07:56:45.090Z,10.13
2019-04-27T07:57:45.189Z,10.04
2019-04-27T07:58:45.364Z,10.10
2019-04-27T07:59:45.512Z,10.04
2019-04-27T08:00:45.676Z,9.95
2019-04-27T08:01:45.821Z,10.09
2019-04-27T08:02:46.020Z,9.98
2019-04-27T08:03:46.168Z,10.02
2019-04-27T08:04:47.871Z,10.09
2019-04-27T08:05:48.981Z,10.13
2019-04-27T08:06:46.611Z,10.09
2019-04-27T08:07:46.774Z,10.10
2019-04-27T08:08:46.943Z,10.02
2019-04-27T08:09:47.107Z,10.02
2019-04-27T08:10:50.157Z,10.07
2019-04-27T08:11:48.841Z,10.06
2019-04-27T08:12:47.621Z,10.04
2019-04-27T08:13:49.058Z,10.01
2019-04-27T08:14:49.096Z,10.16
2019-04-27T08:15:49.594Z,9.99
2019-04-27T08:16:48.760Z,10.14
2019-04-27T08:17:49.552Z,10.11
2019-04-27T08:18:49.354Z,9.96
2019-04-27T08:19:49.874Z,10.06
2019-04-27T08:20:49.167Z,10.13
2019-04-27T08:21:50.137Z,10.01
2019-04-27T08:22:50.085Z,10.09
2019-04-27T08:23:49.519Z,10.04
2019-04-27T08:24:50.572Z,10.17
2019-04-27T08:25:50.809Z,10.13
2019-04-27T08:26:50.030Z,9.98
2019-04-27T08:27:51.085Z,10.02
2019-04-27T08:28:50.363Z,10.09
2019-04-27T08:29:50.514Z,10.11
2019-04-27T08:30:50.647Z,9.98
2019-04-27T08:31:50.779Z,10.01
2019-04-27T08:32:50.927Z,10.10
2019-04-27T08:33:51.093Z,10.10
2019-04-27T08:34:51.234Z,10.14
2019-04-27T08:35:51.443Z,10.13
2019-04-27T08:36:52.590Z,10.07
2019-04-27T08:37:51.718Z,10.16
2019-04-27T08:38:51.871Z,10.04
2019-04-27T08:39:52.027Z,10.17
2019-04-27T08:40:52.228Z,10.20
2019-04-27T08:41:52.400Z,10.31
2019-04-27T08:42:55.482Z,10.22
2019-04-27T08:43:52.693Z,10.26
2019-04-27T08:44:52.838Z,10.28
2019-04-27T08:45:53.004Z,10.28
2019-04-27T08:46:53.600Z,10.25
2019-04-27T08:47:53.393Z,10.24
2019-04-27T08:48:53.556Z,10.25
2019-04-27T08:49:54.599Z,10.35
2019-04-27T08:50:54.603Z,10.26
2019-04-27T08:51:59.253Z,10.28
2019-04-27T08:52:56.278Z,10.29
2019-04-27T08:53:54.363Z,10.31
2019-04-27T08:54:55.093Z,10.38
2019-04-27T08:55:54.739Z,10.32
2019-04-27T08:56:54.987Z,10.35
2019-04-27T08:57:56.094Z,10.29
2019-04-27T08:58:55.328Z,10.26
2019-04-27T08:59:55.486Z,10.28
2019-04-27T09:00:55.672Z,10.22
2019-04-27T09:01:55.917Z,10.24
2019-04-27T09:02:56.072Z,10.28
2019-04-27T09:03:57.086Z,10.31
2019-04-27T09:04:56.464Z,10.28
2019-04-27T09:05:56.646Z,10.26
2019-04-27T09:06:56.875Z,10.20
2019-04-27T09:07:56.933Z,10.25
2019-04-27T09:08:57.102Z,10.31
2019-04-27T09:09:59.606Z,10.34
2019-04-27T09:10:59.006Z,10.20
2019-04-27T09:11:59.378Z,10.18
2019-04-27T09:12:58.864Z,10.36
2019-04-27T09:13:59.053Z,10.34
2019-04-27T09:14:59.270Z,10.39
2019-04-27T09:16:00.030Z,10.39
2019-04-27T09:17:02.802Z,10.34
2019-04-27T09:17:59.806Z,10.25
2019-04-27T09:18:59.813Z,10.28
2019-04-27T09:20:00.987Z,10.25
2019-04-27T09:21:00.098Z,10.28
2019-04-27T09:22:10.366Z,10.38
2019-04-27T09:23:01.615Z,10.29
2019-04-27T09:24:00.588Z,10.32
2019-04-27T09:25:00.612Z,10.42
2019-04-27T09:26:00.112Z,10.44
2019-04-27T09:27:00.272Z,10.32
2019-04-27T09:28:00.506Z,10.36
2019-04-27T09:29:00.670Z,10.51
2019-04-27T09:30:00.814Z,10.57
2019-04-27T09:31:00.955Z,10.47
2019-04-27T09:32:01.829Z,10.55
2019-04-27T09:33:02.230Z,10.58
2019-04-27T09:34:01.392Z,10.49
2019-04-27T09:35:01.562Z,10.58
2019-04-27T09:36:01.712Z,10.47
2019-04-27T09:37:01.873Z,10.60
2019-04-27T09:38:02.049Z,10.55
2019-04-27T09:39:02.240Z,10.65
2019-04-27T09:40:02.383Z,10.62
2019-04-27T09:41:02.528Z,10.68
2019-04-27T09:42:03.701Z,10.69
2019-04-27T09:43:02.834Z,10.58
2019-04-27T09:44:03.123Z,10.81
2019-04-27T09:45:03.629Z,10.58
2019-04-27T09:46:05.708Z,10.80
2019-04-27T09:47:03.451Z,10.76
2019-04-27T09:48:06.439Z,10.72
2019-04-27T09:49:03.802Z,10.78
2019-04-27T09:50:05.773Z,10.70
2019-04-27T09:51:04.170Z,10.73
2019-04-27T09:52:06.254Z,10.73
2019-04-27T09:53:06.385Z,10.68
2019-04-27T09:54:05.874Z,10.76
2019-04-27T09:55:06.707Z,10.91
2019-04-27T09:56:06.173Z,10.72
2019-04-27T09:57:06.911Z,10.81
2019-04-27T09:58:07.107Z,10.60
2019-04-27T09:59:06.418Z,10.70
2019-04-27T10:00:07.156Z,10.76
2019-04-27T10:01:06.666Z,10.88
2019-04-27T10:02:08.732Z,10.88
2019-04-27T10:03:07.491Z,10.83
2019-04-27T10:04:06.712Z,10.76
2019-04-27T10:05:07.170Z,10.91
2019-04-27T10:06:07.615Z,10.81
2019-04-27T10:07:07.235Z,10.62
2019-04-27T10:08:07.488Z,10.66
2019-04-27T10:09:07.589Z,10.70
2019-04-27T10:10:08.117Z,10.81
2019-04-27T10:11:08.121Z,10.84
2019-04-27T10:12:07.977Z,10.86
2019-04-27T10:13:08.627Z,11.06
2019-04-27T10:14:09.112Z,11.21
2019-04-27T10:15:08.382Z,11.23
2019-04-27T10:16:08.529Z,11.35
2019-04-27T10:17:09.596Z,11.17
2019-04-27T10:18:09.128Z,11.17
2019-04-27T10:19:08.972Z,10.91
2019-04-27T10:20:09.110Z,10.93
2019-04-27T10:21:09.295Z,10.93
2019-04-27T10:22:09.507Z,10.81
2019-04-27T10:23:09.730Z,10.91
2019-04-27T10:24:09.866Z,10.99
2019-04-27T10:25:10.010Z,11.11
2019-04-27T10:26:10.178Z,11.28
2019-04-27T10:27:11.114Z,11.09
2019-04-27T10:28:10.627Z,11.16
2019-04-27T10:29:10.632Z,10.84
2019-04-27T10:30:10.754Z,10.99
2019-04-27T10:31:10.899Z,11.03
2019-04-27T10:32:11.053Z,11.03
2019-04-27T10:33:11.255Z,11.08
2019-04-27T10:34:11.422Z,11.17
2019-04-27T10:35:11.583Z,11.21
2019-04-27T10:36:11.758Z,11.24
2019-04-27T10:37:11.910Z,11.28
2019-04-27T10:38:12.072Z,11.39
2019-04-27T10:39:13.513Z,11.13
2019-04-27T10:40:13.412Z,11.13
2019-04-27T10:41:12.523Z,11.30
2019-04-27T10:42:12.692Z,11.20
2019-04-27T10:43:12.834Z,11.24
2019-04-27T10:44:13.000Z,11.31
2019-04-27T10:45:13.159Z,11.42
2019-04-27T10:46:15.663Z,11.60
2019-04-27T10:47:15.693Z,11.60
2019-04-27T10:48:13.596Z,11.48
2019-04-27T10:49:13.788Z,11.70
2019-04-27T10:50:13.999Z,11.66
2019-04-27T10:51:15.995Z,11.82
2019-04-27T10:52:15.117Z,11.94
2019-04-27T10:53:16.858Z,12.00
2019-04-27T10:54:15.132Z,11.77
2019-04-27T10:55:16.111Z,11.56
2019-04-27T10:56:15.064Z,11.77
2019-04-27T10:57:15.833Z,11.69
2019-04-27T10:58:16.430Z,11.63
2019-04-27T10:59:16.447Z,11.69
2019-04-27T11:00:16.730Z,11.64
2019-04-27T11:01:15.845Z,11.51
2019-04-27T11:02:16.629Z,11.69
2019-04-27T11:03:16.666Z,11.38
2019-04-27T11:04:17.431Z,11.39
2019-04-27T11:05:16.603Z,11.30
2019-04-27T11:06:16.803Z,10.91
2019-04-27T11:07:17.031Z,10.13
2019-04-27T11:08:17.236Z,9.53
2019-04-27T11:09:18.212Z,9.16
2019-04-27T11:10:18.305Z,9.01
2019-04-27T11:11:17.816Z,8.85
2019-04-27T11:12:17.995Z,8.71
2019-04-27T11:13:18.169Z,8.55
2019-04-27T11:14:18.364Z,8.46
2019-04-27T11:15:18.620Z,8.63
2019-04-27T11:16:18.804Z,8.60
2019-04-27T11:17:18.967Z,8.60
2019-04-27T11:18:19.141Z,8.79
2019-04-27T11:19:19.305Z,8.80
2019-04-27T11:20:19.502Z,8.88
2019-04-27T11:21:19.660Z,8.85
2019-04-27T11:22:19.867Z,8.91
2019-04-27T11:23:20.624Z,8.96
2019-04-27T11:24:20.144Z,9.17
2019-04-27T11:25:20.306Z,9.49
2019-04-27T11:26:20.639Z,9.59
2019-04-27T11:27:20.668Z,9.95
2019-04-27T11:28:20.823Z,10.02
2019-04-27T11:29:20.971Z,9.81
2019-04-27T11:30:21.110Z,9.81
2019-04-27T11:31:21.286Z,9.45
2019-04-27T11:32:21.466Z,9.40
2019-04-27T11:33:22.614Z,9.31
2019-04-27T11:34:22.147Z,9.38
2019-04-27T11:35:22.033Z,9.32
2019-04-27T11:36:22.212Z,9.48
2019-04-27T11:37:22.632Z,9.40
2019-04-27T11:38:22.540Z,9.52
2019-04-27T11:39:22.696Z,9.52
2019-04-27T11:40:22.858Z,9.38
2019-04-27T11:41:22.994Z,9.32
2019-04-27T11:42:23.637Z,9.23
2019-04-27T11:43:26.023Z,9.19
2019-04-27T11:44:23.451Z,9.31
2019-04-27T11:45:23.582Z,9.45
2019-04-27T11:46:23.732Z,9.35
2019-04-27T11:47:23.865Z,9.45
2019-04-27T11:48:24.020Z,9.58
2019-04-27T11:49:25.805Z,9.60
2019-04-27T11:50:25.643Z,9.70
2019-04-27T11:51:26.475Z,9.65
2019-04-27T11:52:24.757Z,9.59
2019-04-27T11:53:26.221Z,9.59
2019-04-27T11:54:25.536Z,9.45
2019-04-27T11:55:27.361Z,9.49
2019-04-27T11:56:27.486Z,9.60
2019-04-27T11:57:26.666Z,9.41
2019-04-27T11:58:26.593Z,9.50
2019-04-27T11:59:27.147Z,9.48
2019-04-27T12:00:27.663Z,9.53
2019-04-27T12:01:27.323Z,9.35
2019-04-27T12:02:26.463Z,9.48
2019-04-27T12:03:26.640Z,9.59
2019-04-27T12:04:26.810Z,9.53
2019-04-27T12:05:26.979Z,9.49
2019-04-27T12:06:28.125Z,9.44
2019-04-27T12:07:27.641Z,9.45
2019-04-27T12:08:28.136Z,9.59
2019-04-27T12:09:27.814Z,9.55
2019-04-27T12:10:28.039Z,9.52
2019-04-27T12:11:28.193Z,9.55
2019-04-27T12:12:28.387Z,9.58
2019-04-27T12:13:28.545Z,9.71
2019-04-27T12:14:28.702Z,9.73
2019-04-27T12:15:28.889Z,9.91
2019-04-27T12:16:29.051Z,10.06
2019-04-27T12:17:29.341Z,10.25
2019-04-27T12:18:30.436Z,10.09
2019-04-27T12:19:30.135Z,9.93
2019-04-27T12:20:29.805Z,9.77
2019-04-27T12:21:29.986Z,9.86
2019-04-27T12:22:30.163Z,9.68
2019-04-27T12:23:35.514Z,9.37
2019-04-27T12:24:32.544Z,9.37
2019-04-27T12:25:30.669Z,9.27
2019-04-27T12:26:30.825Z,9.22
2019-04-27T12:27:31.000Z,9.20
2019-04-27T12:28:31.164Z,9.08
2019-04-27T12:29:31.399Z,9.15
2019-04-27T12:30:32.131Z,9.31
2019-04-27T12:31:32.627Z,9.15
2019-04-27T12:32:32.030Z,8.93
2019-04-27T12:33:32.213Z,8.73
2019-04-27T12:34:33.133Z,8.68
2019-04-27T12:35:32.644Z,8.75
2019-04-27T12:36:32.646Z,8.68
2019-04-27T12:37:32.780Z,8.57
2019-04-27T12:38:32.947Z,8.46
2019-04-27T12:39:33.635Z,8.45
2019-04-27T12:40:33.310Z,8.50
2019-04-27T12:41:33.450Z,8.46
2019-04-27T12:42:33.573Z,8.50
2019-04-27T12:43:35.527Z,8.28
2019-04-27T12:44:40.401Z,8.37
2019-04-27T12:45:36.952Z,8.22
2019-04-27T12:46:35.133Z,8.31
2019-04-27T12:47:36.301Z,8.34
2019-04-27T12:48:37.422Z,8.37
2019-04-27T12:49:36.290Z,8.14
2019-04-27T12:50:36.251Z,8.20
2019-04-27T12:51:37.362Z,8.09
2019-04-27T12:52:36.398Z,8.06
2019-04-27T12:53:48.326Z,8.12
2019-04-27T12:54:38.707Z,8.03
2019-04-27T12:55:36.917Z,7.95
2019-04-27T12:56:36.184Z,7.95
2019-04-27T12:57:36.493Z,7.96
2019-04-27T12:58:37.516Z,7.81
2019-04-27T12:59:36.681Z,7.82
2019-04-27T13:00:37.883Z,7.89
2019-04-27T13:01:37.014Z,7.79
2019-04-27T13:02:38.135Z,7.81
2019-04-27T13:03:37.371Z,7.85
2019-04-27T13:04:38.378Z,7.85
2019-04-27T13:05:38.705Z,7.86
2019-04-27T13:06:37.868Z,7.85
2019-04-27T13:07:38.025Z,7.84